Time;durP1;ratioP1;P1;durP2;ratioP2;P2;SDS_P1;SDS_P2;PMS_P1;PMS_P2;Temp;Humidity;BMP_temperature;BMP_pressure;BME280_temperature;BME280_humidity;BME280_pressure;Samples;Min_cycle;Max_cycle;Signal;HPM_P1;HPM_P2
2020/12/17 00:01:45;;;;;;;10.03;9.10;;;10.90;99.90;;;;;;5073605;28;20493;-67
2020/12/17 00:04:12;;;;;;;10.53;9.47;;;10.90;99.90;;;;;;5073234;28;21083;-69
2020/12/17 00:06:38;;;;;;;10.90;9.63;;;10.90;99.90;;;;;;5073736;28;20501;-68
2020/12/17 00:09:05;;;;;;;10.60;9.60;;;10.90;99.90;;;;;;5073609;28;20448;-68
2020/12/17 00:11:31;;;;;;;8.73;8.03;;;11.00;99.90;;;;;;5073508;28;20450;-69
2020/12/17 00:13:58;;;;;;;10.13;9.30;;;11.00;99.90;;;;;;5073356;28;20486;-69
2020/12/17 00:16:24;;;;;;;10.43;9.43;;;11.00;99.90;;;;;;5073424;28;20443;-68
2020/12/17 00:18:50;;;;;;;9.43;8.70;;;11.00;99.90;;;;;;5073512;28;20458;-68
2020/12/17 00:21:20;;;;;;;10.33;9.40;;;11.00;99.90;;;;;;5073070;28;20488;-68
2020/12/17 00:23:47;;;;;;;9.73;8.80;;;11.10;99.90;;;;;;5073192;28;20475;-68
2020/12/17 00:26:13;;;;;;;9.80;8.80;;;11.10;99.90;;;;;;5073408;28;20497;-69
2020/12/17 00:28:39;;;;;;;9.77;8.90;;;11.10;99.90;;;;;;5073236;28;20443;-68
2020/12/17 00:31:06;;;;;;;9.80;9.00;;;11.10;99.90;;;;;;5072893;28;20443;-70
2020/12/17 00:33:32;;;;;;;8.77;8.07;;;11.10;99.90;;;;;;5073057;28;20483;-68
2020/12/17 00:35:58;;;;;;;11.17;10.17;;;11.00;99.90;;;;;;5073105;28;20435;-70
2020/12/17 00:38:25;;;;;;;9.30;8.60;;;11.00;99.90;;;;;;5073146;28;20450;-69
2020/12/17 00:40:51;;;;;;;9.37;8.40;;;10.90;99.90;;;;;;5072661;28;20439;-69
2020/12/17 00:43:18;;;;;;;9.73;8.93;;;10.90;99.90;;;;;;5072846;28;20455;-69
2020/12/17 00:45:44;;;;;;;8.70;8.10;;;11.00;99.90;;;;;;5073096;28;20452;-69
2020/12/17 00:48:10;;;;;;;9.50;8.70;;;11.00;99.90;;;;;;5072679;28;20454;-69
2020/12/17 00:50:36;;;;;;;8.97;8.30;;;10.90;99.90;;;;;;5072439;28;20447;-69
2020/12/17 00:53:03;;;;;;;9.87;9.00;;;10.90;99.90;;;;;;5072599;28;20475;-69
2020/12/17 00:55:30;;;;;;;12.50;11.20;;;10.90;99.90;;;;;;5072644;28;20439;-68
2020/12/17 00:57:56;;;;;;;9.50;8.70;;;10.90;99.90;;;;;;5072608;28;20444;-68
2020/12/17 01:00:22;;;;;;;10.23;9.43;;;10.90;99.90;;;;;;5072527;28;20444;-68
2020/12/17 01:02:48;;;;;;;9.50;8.70;;;10.90;99.90;;;;;;5072502;28;20439;-68
2020/12/17 01:05:14;;;;;;;10.60;9.50;;;11.00;99.90;;;;;;5072540;28;20477;-69
2020/12/17 01:07:41;;;;;;;9.80;9.00;;;11.00;99.90;;;;;;5072447;28;20443;-68
2020/12/17 01:10:07;;;;;;;10.40;9.40;;;11.00;99.90;;;;;;5072158;28;20517;-68
2020/12/17 01:12:34;;;;;;;9.70;8.90;;;11.00;99.90;;;;;;5072415;28;20446;-69
2020/12/17 01:15:00;;;;;;;9.90;9.20;;;11.00;99.90;;;;;;5072033;28;20463;-69
2020/12/17 01:17:27;;;;;;;10.87;9.80;;;11.00;99.90;;;;;;5071811;28;20447;-69
2020/12/17 01:19:53;;;;;;;10.13;9.33;;;11.00;99.90;;;;;;5072556;28;20533;-69
2020/12/17 01:22:19;;;;;;;11.50;10.50;;;11.00;99.90;;;;;;5072221;28;20447;-69
2020/12/17 01:24:45;;;;;;;11.93;10.80;;;11.00;99.90;;;;;;5072047;28;20467;-69
2020/12/17 01:27:12;;;;;;;10.53;9.60;;;11.00;99.90;;;;;;5072231;28;20967;-68
2020/12/17 01:29:39;;;;;;;11.17;10.20;;;11.10;99.90;;;;;;5072098;28;20478;-69
2020/12/17 01:32:05;;;;;;;10.80;9.97;;;11.10;99.90;;;;;;5072148;28;20447;-69
2020/12/17 01:34:31;;;;;;;8.80;8.20;;;11.10;99.90;;;;;;5071897;28;20847;-69
2020/12/17 01:36:58;;;;;;;9.30;8.50;;;11.10;99.90;;;;;;5072005;28;20858;-69
2020/12/17 01:39:24;;;;;;;9.40;8.70;;;11.10;99.90;;;;;;5072445;28;20823;-68
2020/12/17 01:41:51;;;;;;;11.47;10.27;;;11.10;99.90;;;;;;5072015;28;20450;-68
2020/12/17 01:44:17;;;;;;;10.07;9.13;;;11.20;99.90;;;;;;5072151;28;20481;-68
2020/12/17 01:46:44;;;;;;;9.83;9.13;;;11.20;99.90;;;;;;5072503;28;20451;-68
2020/12/17 01:49:16;;;;;;;8.20;7.60;;;11.20;99.90;;;;;;5072546;28;20450;-68
2020/12/17 01:51:42;;;;;;;8.90;8.30;;;11.20;99.90;;;;;;5072160;28;20443;-69
2020/12/17 01:54:08;;;;;;;10.53;9.57;;;11.20;99.90;;;;;;5072059;28;20498;-69
2020/12/17 01:56:40;;;;;;;9.83;8.93;;;11.20;99.90;;;;;;5072228;28;20508;-69
2020/12/17 01:59:18;;;;;;;10.90;9.90;;;11.30;99.90;;;;;;5071797;28;20512;-69
2020/12/17 02:01:48;;;;;;;9.73;9.03;;;11.20;99.90;;;;;;5071755;28;20445;-69
2020/12/17 02:04:16;;;;;;;9.67;8.77;;;11.20;99.90;;;;;;5071554;28;20968;-69
2020/12/17 02:06:43;;;;;;;10.47;8.50;;;11.30;99.90;;;;;;5071846;28;20500;-69
2020/12/17 02:09:09;;;;;;;8.60;7.90;;;11.20;99.90;;;;;;5071621;28;20461;-69
2020/12/17 02:11:35;;;;;;;9.20;8.37;;;11.30;99.90;;;;;;5071487;28;20439;-69
2020/12/17 02:14:02;;;;;;;10.20;9.50;;;11.30;99.90;;;;;;5071406;28;20490;-69
2020/12/17 02:16:28;;;;;;;8.73;8.10;;;11.30;99.90;;;;;;5071421;28;20439;-69
2020/12/17 02:18:56;;;;;;;8.77;8.00;;;11.30;99.90;;;;;;5071496;28;20440;-69
2020/12/17 02:21:22;;;;;;;9.13;8.53;;;11.30;99.90;;;;;;5071516;28;20447;-69
2020/12/17 02:23:49;;;;;;;9.63;8.93;;;11.30;99.90;;;;;;5071715;28;20524;-69
2020/12/17 02:26:16;;;;;;;9.03;8.40;;;11.30;99.90;;;;;;5071442;28;20440;-69
2020/12/17 02:28:42;;;;;;;8.33;7.83;;;11.30;99.90;;;;;;5075306;28;20445;-69
2020/12/17 02:31:09;;;;;;;9.07;8.37;;;11.20;99.90;;;;;;5075254;28;20435;-69
2020/12/17 02:33:35;;;;;;;9.23;8.53;;;11.30;99.90;;;;;;5075432;28;20490;-69
2020/12/17 02:36:01;;;;;;;9.90;9.17;;;11.30;99.90;;;;;;5075488;28;20443;-69
2020/12/17 02:38:28;;;;;;;10.00;9.20;;;11.30;99.90;;;;;;5075252;28;21030;-68
2020/12/17 02:40:54;;;;;;;8.57;7.97;;;11.30;99.90;;;;;;5075174;28;20446;-68
2020/12/17 02:43:21;;;;;;;10.20;9.30;;;11.30;99.90;;;;;;5075238;28;20458;-69
2020/12/17 02:45:48;;;;;;;9.60;8.70;;;11.30;99.90;;;;;;5075107;28;20443;-68
2020/12/17 02:48:16;;;;;;;8.83;8.23;;;11.30;99.90;;;;;;5075432;28;20446;-68
2020/12/17 02:50:42;;;;;;;8.50;7.90;;;11.20;99.90;;;;;;5074970;28;20439;-68
2020/12/17 02:53:09;;;;;;;8.43;7.73;;;11.30;99.90;;;;;;5074887;28;20486;-68
2020/12/17 02:55:36;;;;;;;8.97;8.27;;;11.30;99.90;;;;;;5075229;28;20445;-69
2020/12/17 02:58:02;;;;;;;8.93;8.33;;;11.30;99.90;;;;;;5075055;28;20450;-68
2020/12/17 03:00:29;;;;;;;8.50;7.90;;;11.30;99.90;;;;;;5074969;28;20492;-68
2020/12/17 03:02:55;;;;;;;9.30;8.60;;;11.30;99.90;;;;;;5074917;28;20443;-68
2020/12/17 03:05:22;;;;;;;9.13;8.33;;;11.30;99.90;;;;;;5074837;28;20443;-68
2020/12/17 03:07:48;;;;;;;8.73;8.03;;;11.30;99.90;;;;;;5074801;28;20443;-68
2020/12/17 03:10:14;;;;;;;9.67;8.77;;;11.30;99.90;;;;;;5074519;28;20438;-68
2020/12/17 03:12:42;;;;;;;9.20;8.60;;;11.40;99.90;;;;;;5074623;28;20960;-68
2020/12/17 03:15:08;;;;;;;9.47;8.80;;;11.40;99.90;;;;;;5074652;28;20486;-68
2020/12/17 03:17:36;;;;;;;8.90;8.30;;;11.30;99.90;;;;;;5074478;28;20482;-68
2020/12/17 03:20:03;;;;;;;8.93;8.43;;;11.30;99.90;;;;;;5074365;28;20457;-68
2020/12/17 03:22:29;;;;;;;9.57;8.77;;;11.30;99.90;;;;;;5074563;28;20489;-68
2020/12/17 03:24:56;;;;;;;9.00;8.23;;;11.20;99.90;;;;;;5074265;28;20466;-68
2020/12/17 03:27:22;;;;;;;8.70;8.10;;;11.20;99.90;;;;;;5074515;28;20443;-68
2020/12/17 03:29:48;;;;;;;9.97;9.07;;;11.20;99.90;;;;;;5074232;28;20446;-68
2020/12/17 03:32:15;;;;;;;11.03;10.03;;;11.20;99.90;;;;;;5074306;28;20443;-68
2020/12/17 03:34:42;;;;;;;8.47;7.90;;;11.20;99.90;;;;;;5074195;28;20487;-69
2020/12/17 03:37:08;;;;;;;10.40;9.60;;;11.20;99.90;;;;;;5074162;28;20443;-68
2020/12/17 03:39:35;;;;;;;9.53;8.73;;;11.20;99.90;;;;;;5073147;28;20443;-69
2020/12/17 03:42:01;;;;;;;10.03;9.23;;;11.20;99.90;;;;;;5074204;28;20458;-69
2020/12/17 03:44:27;;;;;;;8.23;7.70;;;11.20;99.90;;;;;;5073975;28;20461;-68
2020/12/17 03:46:54;;;;;;;9.23;8.43;;;11.20;99.90;;;;;;5074047;28;20435;-68
2020/12/17 03:49:20;;;;;;;10.30;9.50;;;11.20;99.90;;;;;;5074213;28;20450;-68
2020/12/17 03:51:47;;;;;;;9.83;8.93;;;11.20;99.90;;;;;;5073680;28;20439;-68
2020/12/17 03:54:14;;;;;;;9.40;8.60;;;11.20;99.90;;;;;;5073816;28;20986;-68
2020/12/17 03:56:40;;;;;;;9.60;8.90;;;11.10;99.90;;;;;;5073815;28;20443;-68
2020/12/17 03:59:06;;;;;;;8.40;7.73;;;11.10;99.90;;;;;;5073778;28;20812;-69
2020/12/17 04:01:33;;;;;;;8.37;7.70;;;11.10;99.90;;;;;;5073434;28;20455;-68
2020/12/17 04:03:59;;;;;;;9.33;8.53;;;11.10;99.90;;;;;;5073696;28;20484;-68
2020/12/17 04:06:25;;;;;;;10.00;9.20;;;11.10;99.90;;;;;;5073612;28;20504;-68
2020/12/17 04:08:52;;;;;;;9.33;8.63;;;11.10;99.90;;;;;;5073630;28;20443;-68
2020/12/17 04:11:18;;;;;;;9.43;8.53;;;11.10;99.90;;;;;;5073371;28;20444;-68
2020/12/17 04:13:44;;;;;;;8.93;8.33;;;11.10;99.90;;;;;;5073309;28;20487;-69
2020/12/17 04:16:11;;;;;;;10.00;8.90;;;11.00;99.90;;;;;;5073642;28;20454;-68
2020/12/17 04:18:37;;;;;;;9.23;8.37;;;11.00;99.90;;;;;;5073520;28;20439;-69
2020/12/17 04:21:03;;;;;;;8.57;7.90;;;11.00;99.90;;;;;;5073152;28;20446;-68
2020/12/17 04:23:29;;;;;;;9.17;8.30;;;11.00;99.90;;;;;;5073097;28;20477;-68
2020/12/17 04:25:59;;;;;;;8.50;7.77;;;11.00;99.90;;;;;;5073284;28;20447;-68
2020/12/17 04:28:25;;;;;;;8.20;7.60;;;11.00;99.90;;;;;;5073359;28;20443;-68
2020/12/17 04:30:51;;;;;;;8.73;8.13;;;11.00;99.90;;;;;;5072954;28;20443;-68
2020/12/17 04:33:17;;;;;;;8.33;7.60;;;11.00;99.90;;;;;;5073015;28;20482;-68
2020/12/17 04:35:44;;;;;;;9.50;8.63;;;11.00;99.90;;;;;;5073079;28;20447;-68
2020/12/17 04:38:10;;;;;;;10.23;9.60;;;11.00;99.90;;;;;;5073130;28;20446;-68
2020/12/17 04:40:36;;;;;;;9.90;9.20;;;11.00;99.90;;;;;;5072495;28;20451;-68
2020/12/17 04:43:03;;;;;;;9.77;9.07;;;11.00;99.90;;;;;;5072903;28;20535;-68
2020/12/17 04:45:31;;;;;;;11.33;10.37;;;10.90;99.90;;;;;;5072909;28;20813;-69
2020/12/17 04:47:58;;;;;;;10.67;9.70;;;11.00;99.90;;;;;;5072991;28;20814;-68
2020/12/17 04:50:26;;;;;;;9.33;8.60;;;10.90;99.90;;;;;;5071505;28;20444;-67
2020/12/17 04:52:53;;;;;;;9.97;9.23;;;10.90;99.90;;;;;;5072606;28;20444;-67
2020/12/17 04:55:23;;;;;;;8.97;8.30;;;10.90;99.90;;;;;;5072715;28;20471;-67
2020/12/17 04:57:52;;;;;;;10.53;9.63;;;10.90;99.90;;;;;;5072717;28;20891;-67
2020/12/17 05:00:19;;;;;;;9.77;9.07;;;10.90;99.90;;;;;;5072424;28;20870;-67
2020/12/17 05:02:47;;;;;;;9.80;9.10;;;10.90;99.90;;;;;;5072543;28;20450;-67
2020/12/17 05:05:14;;;;;;;9.73;9.03;;;10.90;99.90;;;;;;5072386;28;20435;-68
2020/12/17 05:07:40;;;;;;;9.57;8.83;;;10.90;99.90;;;;;;5072479;28;20537;-68
2020/12/17 05:10:07;;;;;;;9.67;8.87;;;10.90;99.90;;;;;;5072289;28;20443;-68
2020/12/17 05:12:34;;;;;;;9.47;8.67;;;10.90;99.90;;;;;;5071929;28;21001;-68
2020/12/17 05:15:00;;;;;;;11.07;10.07;;;10.90;99.90;;;;;;5072289;28;20483;-68
2020/12/17 05:17:27;;;;;;;10.77;9.87;;;11.00;99.90;;;;;;5072546;28;20443;-68
2020/12/17 05:19:53;;;;;;;10.90;10.00;;;10.90;99.90;;;;;;5072077;28;20508;-68
2020/12/17 05:22:20;;;;;;;10.30;9.70;;;10.90;99.90;;;;;;5072088;28;20947;-68
2020/12/17 05:24:47;;;;;;;9.90;9.20;;;11.00;99.90;;;;;;5072056;28;20475;-68
2020/12/17 05:27:13;;;;;;;10.60;9.90;;;10.90;99.90;;;;;;5071960;28;20447;-68
2020/12/17 05:29:41;;;;;;;10.87;10.07;;;11.00;99.90;;;;;;5071965;28;20442;-68
2020/12/17 05:32:08;;;;;;;10.57;9.83;;;10.90;99.90;;;;;;5071882;28;20506;-68
2020/12/17 05:34:36;;;;;;;11.00;10.20;;;10.90;99.90;;;;;;5071913;28;21105;-68
2020/12/17 05:37:06;;;;;;;11.70;10.53;;;11.00;99.90;;;;;;5072174;28;20449;-67
2020/12/17 05:39:33;;;;;;;11.30;10.50;;;11.00;99.90;;;;;;5071912;28;20443;-67
2020/12/17 05:42:01;;;;;;;11.80;10.87;;;10.90;99.90;;;;;;5071929;28;20504;-67
2020/12/17 05:44:29;;;;;;;11.80;10.90;;;10.90;99.90;;;;;;5071983;28;20580;-67
2020/12/17 05:46:56;;;;;;;11.77;10.87;;;11.00;99.90;;;;;;5071834;28;20451;-67
2020/12/17 05:49:25;;;;;;;10.60;9.80;;;11.00;99.90;;;;;;5071806;28;20960;-67
2020/12/17 05:52:10;;;;;;;10.80;10.00;;;11.00;99.90;;;;;;5071540;28;20447;-67
2020/12/17 05:54:37;;;;;;;11.23;10.30;;;11.00;99.90;;;;;;5071530;28;20483;-67
2020/12/17 05:57:08;;;;;;;12.60;11.40;;;11.10;99.90;;;;;;5071696;28;20936;-67
2020/12/17 05:59:34;;;;;;;12.50;11.17;;;11.10;99.90;;;;;;5071278;28;20496;-69
2020/12/17 06:02:19;;;;;;;12.00;10.90;;;11.20;99.90;;;;;;5070180;28;20812;-69
2020/12/17 06:04:46;;;;;;;11.63;10.53;;;11.10;99.90;;;;;;5070552;28;20551;-68
2020/12/17 06:07:18;;;;;;;10.93;10.13;;;11.10;99.90;;;;;;5070404;28;20450;-68
2020/12/17 06:09:50;;;;;;;14.37;10.93;;;11.10;99.90;;;;;;5070387;28;20458;-69
2020/12/17 06:12:18;;;;;;;14.43;10.60;;;11.10;99.90;;;;;;5070623;28;20443;-68
2020/12/17 06:14:47;;;;;;;11.37;10.47;;;11.00;99.90;;;;;;5070333;28;21011;-69
2020/12/17 06:17:20;;;;;;;10.90;9.93;;;11.00;99.90;;;;;;5070499;28;20482;-69
2020/12/17 06:19:47;;;;;;;12.40;11.20;;;11.00;99.90;;;;;;5070854;28;20454;-68
2020/12/17 06:22:15;;;;;;;11.33;9.70;;;11.00;99.90;;;;;;5071398;28;21005;-68
2020/12/17 06:24:43;;;;;;;11.33;10.43;;;11.00;99.90;;;;;;5071164;28;20479;-69
2020/12/17 06:27:15;;;;;;;11.37;9.63;;;11.00;99.90;;;;;;5071313;28;20503;-69
2020/12/17 06:29:49;;;;;;;10.43;9.57;;;11.00;99.90;;;;;;5071212;28;20451;-69
2020/12/17 06:32:17;;;;;;;11.27;10.27;;;11.00;99.90;;;;;;5071337;28;20500;-69
2020/12/17 06:34:47;;;;;;;11.20;10.20;;;10.90;99.90;;;;;;5071085;28;20549;-69
2020/12/17 06:37:16;;;;;;;11.80;10.90;;;10.90;99.90;;;;;;5071260;28;20451;-69
2020/12/17 06:39:47;;;;;;;10.77;9.97;;;10.90;99.90;;;;;;5070841;28;20501;-70
2020/12/17 06:42:31;;;;;;;11.13;10.03;;;10.80;99.90;;;;;;5071134;28;20451;-69
2020/12/17 06:44:57;;;;;;;11.43;9.33;;;10.80;99.90;;;;;;5071050;28;20465;-69
2020/12/17 06:47:28;;;;;;;9.27;8.60;;;10.80;99.90;;;;;;5071216;28;20439;-69
2020/12/17 06:49:54;;;;;;;14.37;9.53;;;10.80;99.90;;;;;;5071060;28;20439;-70
2020/12/17 06:52:21;;;;;;;11.20;8.60;;;10.70;99.90;;;;;;5071072;28;20446;-69
2020/12/17 06:54:48;;;;;;;8.10;7.50;;;10.60;99.90;;;;;;5070955;28;20483;-69
2020/12/17 06:57:16;;;;;;;11.03;8.87;;;10.60;99.90;;;;;;5071090;28;20440;-69
2020/12/17 06:59:44;;;;;;;9.03;8.10;;;10.60;99.90;;;;;;5070728;28;20447;-70
2020/12/17 07:02:17;;;;;;;11.20;8.77;;;10.60;99.90;;;;;;5070717;28;20439;-69
2020/12/17 07:04:45;;;;;;;13.03;9.63;;;10.50;99.90;;;;;;5070803;28;20466;-69
2020/12/17 07:07:16;;;;;;;12.07;10.80;;;10.50;99.90;;;;;;5070885;28;20443;-69
2020/12/17 07:09:45;;;;;;;11.20;8.80;;;10.50;99.90;;;;;;5070583;28;20446;-69
2020/12/17 07:12:13;;;;;;;12.83;9.40;;;10.50;99.90;;;;;;5070687;28;20442;-69
2020/12/17 07:14:41;;;;;;;12.30;8.73;;;10.50;99.90;;;;;;5072629;28;20505;-69
2020/12/17 07:17:08;;;;;;;12.17;9.60;;;10.50;99.90;;;;;;5074515;28;20944;-70
2020/12/17 07:19:40;;;;;;;16.73;10.03;;;10.50;99.90;;;;;;5074304;28;20529;-69
2020/12/17 07:22:10;;;;;;;12.97;8.73;;;10.50;99.90;;;;;;5074262;28;20475;-68
2020/12/17 07:24:39;;;;;;;12.87;8.10;;;10.50;99.90;;;;;;5074181;28;20501;-69
2020/12/17 07:27:12;;;;;;;9.50;8.23;;;10.50;99.90;;;;;;5074272;28;20474;-69
2020/12/17 07:29:42;;;;;;;12.23;8.13;;;10.50;99.90;;;;;;5074066;28;20477;-69
2020/12/17 07:32:29;;;;;;;10.77;8.00;;;10.50;99.90;;;;;;5074030;28;20447;-68
2020/12/17 07:34:57;;;;;;;7.27;6.57;;;10.50;99.90;;;;;;5074067;28;20486;-69
2020/12/17 07:37:40;;;;;;;8.13;6.83;;;10.50;99.90;;;;;;5074207;28;20443;-68
2020/12/17 07:40:23;;;;;;;7.10;6.40;;;10.50;99.90;;;;;;5073883;28;20439;-68
2020/12/17 07:43:05;;;;;;;6.03;5.43;;;10.50;99.90;;;;;;5072093;28;20455;-68
2020/12/17 07:45:52;;;;;;;6.83;4.80;;;10.50;99.90;;;;;;5073890;28;20471;-68
2020/12/17 07:48:36;;;;;;;5.30;4.90;;;10.50;99.90;;;;;;5068893;28;20462;-69
2020/12/17 07:51:04;;;;;;;4.80;4.40;;;10.50;99.90;;;;;;5073527;28;20450;-68
2020/12/17 07:53:30;;;;;;;5.27;4.40;;;10.50;99.90;;;;;;5073331;28;20474;-68
2020/12/17 07:55:56;;;;;;;5.93;5.10;;;10.50;99.90;;;;;;5073676;28;20451;-68
2020/12/17 07:58:23;;;;;;;4.73;4.10;;;10.50;99.90;;;;;;5073826;28;20501;-69
2020/12/17 08:00:52;;;;;;;4.30;3.90;;;10.50;99.90;;;;;;5073288;28;20945;-69
2020/12/17 08:03:18;;;;;;;5.80;5.10;;;10.50;99.90;;;;;;5073456;28;20459;-69
2020/12/17 08:05:45;;;;;;;5.97;4.97;;;10.50;99.90;;;;;;5073504;28;20449;-68
2020/12/17 08:08:15;;;;;;;8.27;4.60;;;10.50;99.90;;;;;;5073478;28;20446;-68
2020/12/17 08:10:42;;;;;;;4.77;4.40;;;10.50;99.90;;;;;;5073186;28;20451;-68
2020/12/17 08:13:08;;;;;;;7.17;4.37;;;10.50;99.90;;;;;;5073290;28;20881;-68
2020/12/17 08:15:36;;;;;;;5.30;4.40;;;10.40;99.90;;;;;;5073146;28;20508;-68
2020/12/17 08:18:03;;;;;;;4.53;4.17;;;10.40;99.90;;;;;;5073245;28;20447;-68
2020/12/17 08:20:30;;;;;;;6.27;4.20;;;10.40;99.90;;;;;;5073022;28;20534;-68
2020/12/17 08:22:57;;;;;;;4.40;4.07;;;10.50;99.90;;;;;;5072906;28;20440;-68
2020/12/17 08:25:24;;;;;;;8.13;3.90;;;10.50;99.90;;;;;;5073423;28;20534;-69
2020/12/17 08:27:51;;;;;;;5.27;4.77;;;10.50;99.90;;;;;;5073125;28;20440;-69
2020/12/17 08:30:18;;;;;;;4.33;3.63;;;10.50;99.90;;;;;;5072859;28;20451;-70
2020/12/17 08:32:53;;;;;;;7.47;4.17;;;10.50;99.90;;;;;;5072837;28;20447;-69
2020/12/17 08:35:24;;;;;;;4.33;4.03;;;10.50;99.90;;;;;;5072885;28;20505;-69
2020/12/17 08:37:51;;;;;;;4.13;3.60;;;10.50;99.90;;;;;;5072669;28;20447;-69
2020/12/17 08:40:22;;;;;;;4.90;4.37;;;10.50;99.90;;;;;;5072562;28;20516;-69
2020/12/17 08:42:53;;;;;;;4.77;4.37;;;10.50;99.90;;;;;;5072457;28;20474;-69
2020/12/17 08:45:22;;;;;;;9.50;4.17;;;10.50;99.90;;;;;;5072784;28;20454;-69
2020/12/17 08:47:56;;;;;;;3.63;3.33;;;10.40;99.90;;;;;;5072647;28;20446;-70
2020/12/17 08:50:22;;;;;;;3.77;3.37;;;10.40;99.90;;;;;;5072500;28;20963;-69
2020/12/17 08:52:49;;;;;;;7.70;4.13;;;10.50;99.90;;;;;;5072545;28;20439;-69
2020/12/17 08:55:16;;;;;;;4.30;4.00;;;10.50;99.90;;;;;;5072516;28;20838;-69
2020/12/17 08:57:42;;;;;;;4.57;4.17;;;10.50;99.90;;;;;;5072547;28;20453;-68
2020/12/17 09:00:14;;;;;;;3.90;3.57;;;10.60;99.90;;;;;;5072175;28;20448;-68
2020/12/17 09:02:41;;;;;;;10.93;5.93;;;10.60;99.90;;;;;;5072444;28;20943;-69
2020/12/17 09:05:11;;;;;;;6.10;4.60;;;10.60;99.90;;;;;;5072249;28;20463;-69
2020/12/17 09:07:40;;;;;;;3.60;3.30;;;10.70;99.90;;;;;;5072603;28;20936;-69
2020/12/17 09:10:08;;;;;;;3.80;3.60;;;10.70;99.90;;;;;;5072160;28;20851;-70
2020/12/17 09:12:35;;;;;;;4.60;4.20;;;10.70;99.90;;;;;;5072175;28;20458;-70
2020/12/17 09:15:05;;;;;;;4.97;4.67;;;10.80;99.90;;;;;;5072054;28;20478;-69
2020/12/17 09:17:32;;;;;;;5.03;4.83;;;11.00;99.90;;;;;;5072143;28;20497;-69
2020/12/17 09:19:58;;;;;;;4.67;4.47;;;11.10;99.90;;;;;;5071868;28;20447;-69
2020/12/17 09:22:31;;;;;;;5.00;4.80;;;11.20;99.90;;;;;;5071897;28;20950;-67
2020/12/17 09:24:58;;;;;;;6.30;5.70;;;11.20;99.90;;;;;;5071739;28;20478;-68
2020/12/17 09:27:26;;;;;;;5.80;5.50;;;11.30;99.90;;;;;;5071878;28;20447;-69
2020/12/17 09:30:01;;;;;;;5.30;5.20;;;11.20;99.90;;;;;;5071798;28;20482;-69
2020/12/17 09:32:28;;;;;;;6.40;6.10;;;11.20;99.90;;;;;;5071759;28;20454;-69
2020/12/17 09:35:01;;;;;;;6.33;6.13;;;11.40;99.90;;;;;;5071711;28;20487;-69
2020/12/17 09:37:28;;;;;;;6.53;6.33;;;11.40;99.90;;;;;;5071179;28;20439;-69
2020/12/17 09:39:54;;;;;;;6.60;6.30;;;11.40;99.90;;;;;;5071698;28;20842;-68
2020/12/17 09:42:21;;;;;;;6.70;6.30;;;11.40;99.90;;;;;;5071556;28;20963;-69
2020/12/17 09:44:47;;;;;;;7.13;6.77;;;11.40;99.90;;;;;;5071581;28;20470;-68
2020/12/17 09:47:13;;;;;;;7.23;6.93;;;11.40;99.90;;;;;;5071552;28;20443;-69
2020/12/17 09:49:40;;;;;;;6.43;6.13;;;11.50;99.90;;;;;;5071386;28;20450;-68
2020/12/17 09:52:09;;;;;;;7.53;7.13;;;11.60;99.90;;;;;;5071474;28;20530;-69
2020/12/17 09:54:40;;;;;;;7.23;6.97;;;11.60;99.90;;;;;;5071355;28;20479;-68
2020/12/17 09:57:12;;;;;;;7.73;7.40;;;11.70;99.90;;;;;;5071423;28;20480;-68
2020/12/17 09:59:40;;;;;;;7.47;7.17;;;11.80;99.90;;;;;;5071365;28;20472;-68
2020/12/17 10:02:08;;;;;;;9.23;8.70;;;11.80;99.90;;;;;;5071354;28;20829;-69
2020/12/17 10:04:34;;;;;;;8.43;8.13;;;11.80;99.90;;;;;;5071163;28;20455;-68
2020/12/17 10:07:01;;;;;;;9.43;9.00;;;11.90;99.90;;;;;;5071295;28;20473;-68
2020/12/17 10:09:28;;;;;;;11.33;10.70;;;11.90;99.90;;;;;;5071378;28;20444;-68
2020/12/17 10:11:57;;;;;;;7.97;7.77;;;11.90;99.90;;;;;;5071033;28;20443;-70
2020/12/17 10:14:23;;;;;;;9.07;8.57;;;11.80;99.90;;;;;;5071104;28;20487;-69
2020/12/17 10:16:55;;;;;;;8.80;8.13;;;11.80;99.90;;;;;;5071162;28;20941;-68
2020/12/17 10:19:22;;;;;;;9.70;9.20;;;11.90;99.90;;;;;;5071288;28;20447;-69
2020/12/17 10:21:49;;;;;;;9.17;8.77;;;12.00;99.90;;;;;;5070853;28;21015;-69
2020/12/17 10:24:15;;;;;;;10.07;9.67;;;12.10;99.90;;;;;;5070911;28;20471;-70
2020/12/17 10:26:42;;;;;;;9.33;9.03;;;12.20;99.90;;;;;;5071164;28;20448;-69
2020/12/17 10:29:09;;;;;;;9.90;9.60;;;12.40;99.90;;;;;;5071281;28;20451;-68
2020/12/17 10:31:36;;;;;;;10.50;10.00;;;12.50;99.90;;;;;;5070927;28;20924;-68
2020/12/17 10:34:02;;;;;;;10.90;10.40;;;12.40;99.90;;;;;;5070966;28;20490;-68
2020/12/17 10:36:28;;;;;;;11.20;10.70;;;12.60;99.90;;;;;;5071172;28;20447;-69
2020/12/17 10:38:54;;;;;;;11.40;10.70;;;12.70;99.90;;;;;;5071063;28;20444;-68
2020/12/17 10:41:26;;;;;;;11.40;10.97;;;12.80;99.90;;;;;;5070728;28;20933;-68
2020/12/17 10:43:52;;;;;;;11.30;10.90;;;12.90;99.90;;;;;;5071178;28;20497;-69
2020/12/17 10:46:20;;;;;;;11.50;11.10;;;13.10;99.90;;;;;;5071040;28;20595;-68
2020/12/17 10:48:46;;;;;;;11.40;11.00;;;13.10;99.90;;;;;;5073238;28;20438;-68
2020/12/17 10:51:13;;;;;;;12.07;11.50;;;13.50;99.90;;;;;;5074645;28;20466;-69
2020/12/17 10:53:40;;;;;;;12.20;11.50;;;13.50;99.90;;;;;;5074644;28;20527;-69
2020/12/17 10:56:07;;;;;;;12.37;11.93;;;13.50;99.90;;;;;;5074674;28;20438;-68
2020/12/17 10:58:33;;;;;;;12.67;12.13;;;13.40;99.90;;;;;;5074675;28;20496;-69
2020/12/17 11:00:59;;;;;;;13.10;12.60;;;13.50;99.90;;;;;;5074483;28;20453;-69
2020/12/17 11:03:26;;;;;;;14.07;13.40;;;13.90;99.90;;;;;;5074609;28;20475;-68
2020/12/17 11:05:56;;;;;;;13.33;12.70;;;14.10;99.90;;;;;;5074512;28;20439;-68
2020/12/17 11:08:22;;;;;;;13.60;12.90;;;14.00;99.90;;;;;;5074493;28;20443;-67
2020/12/17 11:10:48;;;;;;;13.60;13.10;;;14.20;99.90;;;;;;5074247;28;20443;-68
2020/12/17 11:13:15;;;;;;;14.03;13.50;;;14.50;99.90;;;;;;5074252;28;20473;-68
2020/12/17 11:15:42;;;;;;;14.40;13.80;;;14.70;99.90;;;;;;5074416;28;20532;-69
2020/12/17 11:18:08;;;;;;;14.40;13.80;;;14.50;99.90;;;;;;5074308;28;20443;-67
2020/12/17 11:20:36;;;;;;;14.57;13.83;;;14.30;99.90;;;;;;5074055;28;20445;-69
2020/12/17 11:23:02;;;;;;;14.83;14.33;;;14.60;99.90;;;;;;5074102;28;20470;-68
2020/12/17 11:25:29;;;;;;;15.23;14.63;;;15.70;99.90;;;;;;5074340;28;20445;-68
2020/12/17 11:27:55;;;;;;;16.30;15.40;;;16.20;98.40;;;;;;5074097;28;20477;-69
2020/12/17 11:30:21;;;;;;;16.00;15.40;;;15.90;97.00;;;;;;5074112;28;20443;-68
2020/12/17 11:32:47;;;;;;;17.53;16.70;;;15.30;96.00;;;;;;5074045;28;20447;-69
2020/12/17 11:35:14;;;;;;;15.90;15.30;;;14.90;97.60;;;;;;5073938;28;20475;-68
2020/12/17 11:37:41;;;;;;;16.40;15.50;;;14.10;98.70;;;;;;5074156;28;20447;-69
2020/12/17 11:40:08;;;;;;;15.33;14.73;;;13.80;99.90;;;;;;5073781;28;20538;-69
2020/12/17 11:42:34;;;;;;;15.40;14.80;;;13.60;99.90;;;;;;5073919;28;20450;-68
2020/12/17 11:45:00;;;;;;;14.80;14.20;;;13.40;99.90;;;;;;5073823;28;20517;-69
2020/12/17 11:47:29;;;;;;;15.47;14.77;;;13.20;99.90;;;;;;5073843;28;20675;-67
2020/12/17 11:49:56;;;;;;;15.50;14.80;;;12.90;99.90;;;;;;5073604;28;20509;-69
2020/12/17 11:52:22;;;;;;;16.20;15.43;;;12.80;99.90;;;;;;5073511;28;20937;-68
2020/12/17 11:54:49;;;;;;;15.77;14.93;;;12.90;99.90;;;;;;5073514;28;20483;-68
2020/12/17 11:57:15;;;;;;;15.27;14.77;;;12.90;99.90;;;;;;5073443;28;20501;-69
2020/12/17 11:59:41;;;;;;;15.93;15.23;;;12.90;99.90;;;;;;5072804;28;20457;-68
2020/12/17 12:02:07;;;;;;;15.50;14.50;;;13.00;99.90;;;;;;5073529;28;20447;-69
2020/12/17 12:04:34;;;;;;;15.97;15.20;;;13.10;99.90;;;;;;5073349;28;20456;-69
2020/12/17 12:07:00;;;;;;;15.13;14.63;;;12.90;99.90;;;;;;5073667;28;20462;-68
2020/12/17 12:09:26;;;;;;;15.93;15.03;;;12.80;99.90;;;;;;5073395;28;20925;-67
2020/12/17 12:11:55;;;;;;;15.40;14.80;;;13.10;99.90;;;;;;5073061;28;20446;-67
2020/12/17 12:14:22;;;;;;;15.93;15.23;;;13.50;99.90;;;;;;5073073;28;20487;-68
2020/12/17 12:16:48;;;;;;;17.27;16.47;;;13.90;99.90;;;;;;5073296;28;20450;-69
2020/12/17 12:19:14;;;;;;;16.73;15.90;;;15.30;99.90;;;;;;5073251;28;20439;-69
2020/12/17 12:21:40;;;;;;;16.60;15.67;;;16.00;95.50;;;;;;5072922;28;20782;-69
2020/12/17 12:24:07;;;;;;;17.23;16.47;;;16.10;94.20;;;;;;5072979;28;20477;-69
2020/12/17 12:26:33;;;;;;;17.30;16.40;;;15.30;94.10;;;;;;5072950;28;20478;-68
2020/12/17 12:29:00;;;;;;;16.07;15.47;;;14.60;95.00;;;;;;5073013;28;20501;-67
2020/12/17 12:31:26;;;;;;;17.17;16.30;;;13.80;96.70;;;;;;5072786;28;20542;-68
2020/12/17 12:33:52;;;;;;;15.90;15.10;;;13.60;98.60;;;;;;5072814;28;20466;-68
2020/12/17 12:36:19;;;;;;;15.93;15.13;;;13.40;99.50;;;;;;5072880;28;20439;-68
2020/12/17 12:38:45;;;;;;;15.70;15.10;;;13.30;99.90;;;;;;5072902;28;20439;-68
2020/12/17 12:41:11;;;;;;;17.40;16.23;;;13.20;99.90;;;;;;5072462;28;20447;-68